Bookmark and Share
Track history (hours):
 

Delta Ios

Last reported at 2014-Apr-12 07:15 UTC. Time now 2014-Apr-20 13:32 UTC.
Position N 01°15' E 103°24'.
Warning: this ship's position is 8 days out of date.

Length 276 m; draft 9 m.

Type: Ship. MMSI: 240821000.

NotesDate/timePositionNaut miles runAvg speedWind from/ knotsBaromVisibWave heightAir tempDewpointWater temp
2014-Apr-12 07:15N 01°15' E 103°24'710.1
2014-Apr-12 06:33N 01°13' E 103°31'8 8.1
2014-Apr-12 05:33N 01°12' E 103°39'2 1.6
2014-Apr-12 04:32N 01°12' E 103°41'0 0.0
2014-Apr-12 03:32N 01°12' E 103°41'0 0.0
2014-Apr-12 02:32N 01°12' E 103°41'0 0.0
2014-Apr-12 01:29N 01°12' E 103°41'0 0.0
2014-Apr-12 00:32N 01°12' E 103°41'0 0.0
2014-Apr-11 23:32N 01°12' E 103°41'0 0.3
2014-Apr-11 22:29N 01°12' E 103°41'0 0.1
2014-Apr-11 21:32N 01°12' E 103°41'0 0.1
2014-Apr-11 20:23N 01°12' E 103°40'0 0.1
2014-Apr-11 19:26N 01°12' E 103°41'0 0.1
2014-Apr-11 18:32N 01°12' E 103°41'0 0.1
2014-Apr-11 17:32N 01°12' E 103°40'0 0.1
2014-Apr-11 16:32N 01°12' E 103°41'0 0.0
2014-Apr-11 15:20N 01°12' E 103°41'0 0.1
2014-Apr-11 14:32N 01°12' E 103°41'0 0.1
2014-Apr-11 13:32N 01°12' E 103°41'0 0.1
2014-Apr-11 12:32N 01°12' E 103°41'0 0.1
2014-Apr-11 11:29N 01°12' E 103°41'0 0.0
2014-Apr-11 10:20N 01°12' E 103°41'0 0.3
2014-Apr-11 09:32N 01°12' E 103°41'0 0.1
2014-Apr-11 08:29N 01°12' E 103°41'0 0.0
2014-Apr-11 07:33N 01°12' E 103°41'0 0.0
2014-Apr-11 06:33N 01°12' E 103°41'0 0.0
2014-Apr-11 05:33N 01°12' E 103°41'0 0.3
2014-Apr-11 04:33N 01°12' E 103°40'4 4.2
2014-Apr-11 03:33N 01°12' E 103°36'2 1.9
2014-Apr-11 02:19N 01°15' E 103°36'0 0.0
2014-Apr-11 01:19N 01°15' E 103°36'0 0.0
2014-Apr-11 00:31N 01°15' E 103°36'0 0.0
2014-Apr-10 23:31N 01°15' E 103°36'0 0.0
2014-Apr-10 22:28N 01°15' E 103°36'0 0.0
2014-Apr-10 21:31N 01°15' E 103°36'0 0.0
2014-Apr-10 20:31N 01°15' E 103°36'0 0.0
2014-Apr-10 19:31N 01°15' E 103°36'0 0.0
2014-Apr-10 18:31N 01°15' E 103°36'0 0.0
2014-Apr-10 17:28N 01°15' E 103°36'0 0.0
2014-Apr-10 16:31N 01°15' E 103°36'0 0.0
2014-Apr-10 15:31N 01°15' E 103°36'0 0.0
2014-Apr-10 14:31N 01°15' E 103°36'0 0.0
2014-Apr-10 13:31N 01°15' E 103°36'0 0.0
2014-Apr-10 12:31N 01°15' E 103°36'0 0.0
2014-Apr-10 11:28N 01°15' E 103°36'0 0.0
2014-Apr-10 10:31N 01°15' E 103°36'0 0.0
2014-Apr-10 09:31N 01°15' E 103°36'0 0.0
2014-Apr-10 08:28N 01°15' E 103°36'0 0.0
2014-Apr-10 07:28N 01°15' E 103°36'0 0.0
2014-Apr-10 06:22N 01°15' E 103°36'0 0.0
2014-Apr-10 05:22N 01°15' E 103°36'0 0.0
2014-Apr-10 04:28N 01°15' E 103°36'0 0.0
2014-Apr-10 03:31N 01°15' E 103°36'0 0.0
2014-Apr-10 02:22N 01°15' E 103°36'0 0.0
2014-Apr-10 01:31N 01°15' E 103°36'0 0.0
2014-Apr-10 00:22N 01°15' E 103°36'0 0.0
2014-Apr-09 23:31N 01°15' E 103°36'0 0.0
2014-Apr-09 22:19N 01°15' E 103°36'0 0.0
2014-Apr-09 21:31N 01°15' E 103°36'0 0.0
2014-Apr-09 20:31N 01°15' E 103°36'0 0.0
2014-Apr-09 19:28N 01°15' E 103°36'0 0.0
2014-Apr-09 18:28N 01°15' E 103°36'0 0.0
2014-Apr-09 17:31N 01°15' E 103°36'0 0.0
2014-Apr-09 16:28N 01°15' E 103°36'0 0.0
2014-Apr-09 15:25N 01°15' E 103°36'0 0.0
2014-Apr-09 14:31N 01°15' E 103°36'0 0.0
2014-Apr-09 13:28N 01°15' E 103°36'0 0.0
2014-Apr-09 12:31N 01°15' E 103°36'0 0.0
2014-Apr-09 11:31N 01°15' E 103°36'0 0.0
2014-Apr-09 10:28N 01°15' E 103°36'0 0.0
2014-Apr-09 09:28N 01°15' E 103°36'0 0.0
2014-Apr-09 08:07N 01°15' E 103°36'0 0.0
2014-Apr-09 07:25N 01°15' E 103°36'0 0.0
2014-Apr-09 06:19N 01°15' E 103°36'0 0.0
2014-Apr-09 05:28N 01°15' E 103°36'0 0.0
2014-Apr-09 04:28N 01°15' E 103°36'0 0.0
2014-Apr-09 03:31N 01°15' E 103°36'0 0.0
2014-Apr-09 02:31N 01°15' E 103°36'0 0.0
2014-Apr-09 01:25N 01°15' E 103°36'0 0.0
2014-Apr-09 00:31N 01°15' E 103°36'0 0.0
2014-Apr-08 23:31N 01°15' E 103°36'0 0.0
2014-Apr-08 22:28N 01°15' E 103°36'0 0.0
2014-Apr-08 21:31N 01°15' E 103°36'0 0.0
2014-Apr-08 20:28N 01°15' E 103°36'0 0.0
2014-Apr-08 19:28N 01°15' E 103°36'0 0.0
2014-Apr-08 18:25N 01°15' E 103°36'0 0.0
2014-Apr-08 17:31N 01°15' E 103°36'0 0.0
2014-Apr-08 16:31N 01°15' E 103°36'0 0.0
2014-Apr-08 15:13N 01°15' E 103°36'0 0.0
2014-Apr-08 14:16N 01°15' E 103°36'0 0.0
2014-Apr-08 13:28N 01°15' E 103°36'0 0.0
2014-Apr-08 12:31N 01°15' E 103°36'0 0.0
2014-Apr-08 11:25N 01°15' E 103°36'0 0.1
2014-Apr-08 10:31N 01°15' E 103°36'0 0.4
2014-Apr-08 09:25N 01°15' E 103°37'0 0.0
2014-Apr-08 08:25N 01°15' E 103°37'0 0.0
2014-Apr-08 07:31N 01°15' E 103°37'0 0.0
2014-Apr-08 06:31N 01°15' E 103°37'0 0.0
2014-Apr-08 05:31N 01°15' E 103°37'0 0.0
2014-Apr-08 04:28N 01°15' E 103°37'0 0.0
2014-Apr-08 03:31N 01°15' E 103°37'0 0.0
2014-Apr-08 02:31N 01°15' E 103°37'0 0.0
2014-Apr-08 01:28N 01°15' E 103°37'0 0.0
2014-Apr-08 00:31N 01°15' E 103°37'0 0.0
2014-Apr-07 23:31N 01°15' E 103°37'0 0.0
2014-Apr-07 22:31N 01°15' E 103°37'0 0.0
2014-Apr-07 21:31N 01°15' E 103°37'0 0.0
2014-Apr-07 20:31N 01°15' E 103°37'0 0.0
2014-Apr-07 19:31N 01°15' E 103°37'0 0.0
2014-Apr-07 17:28N 01°15' E 103°37'0 0.0
2014-Apr-07 16:31N 01°15' E 103°37'0 0.0
2014-Apr-07 15:31N 01°15' E 103°37'0 0.0
2014-Apr-07 14:31N 01°15' E 103°37'0 0.0
2014-Apr-07 13:28N 01°15' E 103°37'0 0.0
2014-Apr-07 12:31N 01°15' E 103°37'0 0.0
2014-Apr-07 11:28N 01°15' E 103°37'0 0.0
2014-Apr-07 10:31N 01°15' E 103°37'0 0.0
2014-Apr-07 09:31N 01°15' E 103°37'0 0.0
2014-Apr-07 08:31N 01°15' E 103°37'0 0.0
2014-Apr-07 07:31N 01°15' E 103°37'0 0.0
2014-Apr-07 06:25N 01°15' E 103°37'0 0.0
2014-Apr-07 05:31N 01°15' E 103°37'0 0.0
2014-Apr-07 04:28N 01°15' E 103°37'0 0.0
2014-Apr-07 03:25N 01°15' E 103°37'0 0.0
2014-Apr-07 02:31N 01°15' E 103°37'0 0.0
2014-Apr-07 01:31N 01°15' E 103°37'0 0.0
2014-Apr-07 00:31N 01°15' E 103°37'0 0.0
2014-Apr-06 23:31N 01°15' E 103°37'0 0.0
2014-Apr-06 22:31N 01°15' E 103°37'0 0.0
2014-Apr-06 21:31N 01°15' E 103°37'0 0.0
2014-Apr-06 20:28N 01°15' E 103°37'0 0.0
2014-Apr-06 19:31N 01°15' E 103°37'0 0.0
2014-Apr-06 18:31N 01°15' E 103°37'0 0.0
2014-Apr-06 17:31N 01°15' E 103°37'0 0.0
2014-Apr-06 16:28N 01°15' E 103°37'0 0.0
2014-Apr-06 15:31N 01°15' E 103°37'0 0.0
2014-Apr-06 14:31N 01°15' E 103°37'0 0.0
2014-Apr-06 13:28N 01°15' E 103°37'0 0.0
2014-Apr-06 12:31N 01°15' E 103°37'0 0.0
2014-Apr-06 11:31N 01°15' E 103°37'0 0.0
2014-Apr-06 10:25N 01°15' E 103°37'0 0.0
2014-Apr-06 09:28N 01°15' E 103°37'0 0.0
2014-Apr-06 08:31N 01°15' E 103°37'0 0.0
2014-Apr-06 07:31N 01°15' E 103°37'0 0.0
2014-Apr-06 06:31N 01°15' E 103°37'0 0.0
2014-Apr-06 05:31N 01°15' E 103°37'0 0.0
2014-Apr-06 04:31N 01°15' E 103°37'0 0.0
2014-Apr-06 03:31N 01°15' E 103°37'0 0.0
2014-Apr-06 02:31N 01°15' E 103°37'0 0.0
2014-Apr-06 01:31N 01°15' E 103°37'0 0.0
2014-Apr-06 00:31N 01°15' E 103°37'0 0.0
2014-Apr-05 23:28N 01°15' E 103°37'0 0.0
2014-Apr-05 22:31N 01°15' E 103°37'0 0.0
2014-Apr-05 21:28N 01°15' E 103°37'0 0.0
2014-Apr-05 20:28N 01°15' E 103°37'0 0.0
2014-Apr-05 19:31N 01°15' E 103°37'0 0.0
2014-Apr-05 18:28N 01°15' E 103°37'0 0.0
2014-Apr-05 17:31N 01°15' E 103°37'0 0.0
2014-Apr-05 16:31N 01°15' E 103°37'0 0.0
2014-Apr-05 15:19N 01°15' E 103°37'0 0.0
2014-Apr-05 14:31N 01°15' E 103°37'0 0.0
2014-Apr-05 13:31N 01°15' E 103°37'0 0.0
2014-Apr-05 12:31N 01°15' E 103°37'0 0.0
2014-Apr-05 11:31N 01°15' E 103°37'0 0.0
2014-Apr-05 10:31N 01°15' E 103°37'0 0.0
2014-Apr-05 09:31N 01°15' E 103°37'0 0.0
2014-Apr-05 08:22N 01°15' E 103°37'0 0.0
2014-Apr-05 07:31N 01°15' E 103°37'0 0.0
2014-Apr-05 06:31N 01°15' E 103°37'0 0.0
2014-Apr-05 05:31N 01°15' E 103°37'0 0.0
2014-Apr-05 04:19N 01°15' E 103°37'0 0.0
2014-Apr-05 03:31N 01°15' E 103°37'0 0.0
2014-Apr-05 02:31N 01°15' E 103°37'0 0.0
2014-Apr-05 01:31N 01°15' E 103°37'0 0.0
2014-Apr-05 00:31N 01°15' E 103°37'0 0.0
2014-Apr-04 23:31N 01°15' E 103°37'0 0.0
2014-Apr-04 22:28N 01°15' E 103°37'0 0.0
2014-Apr-04 21:31N 01°15' E 103°37'0 0.0
2014-Apr-04 20:31N 01°15' E 103°37'0 0.0
2014-Apr-04 19:31N 01°15' E 103°37'0 0.0
2014-Apr-04 18:31N 01°15' E 103°37'0 0.0
2014-Apr-04 17:31N 01°15' E 103°37'0 0.0
2014-Apr-04 16:31N 01°15' E 103°37'0 0.0
2014-Apr-04 15:31N 01°15' E 103°37'0 0.0
2014-Apr-04 14:31N 01°15' E 103°37'0 0.0
2014-Apr-04 13:28N 01°15' E 103°37'0 0.0
2014-Apr-04 12:31N 01°15' E 103°37'0 0.0
2014-Apr-04 11:28N 01°15' E 103°37'0 0.0
2014-Apr-04 10:31N 01°15' E 103°37'0 0.0
2014-Apr-04 09:28N 01°15' E 103°37'0 0.0
2014-Apr-03 09:30N 01°15' E 103°37'  

Dump ship's entire track history

sailing weather and tide predictions

Delta Ios — SVAK9 — position and weather